Time;durP1;ratioP1;P1;durP2;ratioP2;P2;SDS_P1;SDS_P2;PMS_P1;PMS_P2;Temp;Humidity;BMP_temperature;BMP_pressure;BME280_temperature;BME280_humidity;BME280_pressure;Samples;Min_cycle;Max_cycle;Signal;HPM_P1;HPM_P2
2024/03/22 08:52:35;;;;;;;10.80;5.10;;;12.20;99.90;;;;;;4253680;27;20253;-73
2024/03/22 08:55:01;;;;;;;10.67;4.80;;;12.20;99.90;;;;;;4917387;29;20213;-73
2024/03/22 08:57:27;;;;;;;11.53;4.87;;;12.30;99.90;;;;;;4910840;29;20290;-74
2024/03/22 08:59:55;;;;;;;10.43;4.67;;;12.40;99.90;;;;;;4897754;29;20242;-74
2024/03/22 09:02:21;;;;;;;7.63;4.07;;;12.40;99.90;;;;;;4898922;29;20210;-73
2024/03/22 09:04:48;;;;;;;9.73;4.30;;;12.40;99.90;;;;;;4899400;29;20628;-81
2024/03/22 09:07:14;;;;;;;7.43;3.57;;;12.30;99.90;;;;;;4898582;29;20257;-76
2024/03/22 09:09:42;;;;;;;8.43;4.17;;;12.40;99.90;;;;;;4893250;29;20237;-74
2024/03/22 09:12:09;;;;;;;7.30;3.90;;;12.40;99.90;;;;;;4894169;29;20238;-75
2024/03/22 09:14:35;;;;;;;8.00;3.57;;;12.40;99.90;;;;;;4898768;29;20229;-73
2024/03/22 09:17:02;;;;;;;7.77;3.80;;;12.50;99.90;;;;;;4898228;29;20269;-75
2024/03/22 09:19:28;;;;;;;9.77;4.13;;;12.70;99.90;;;;;;4892992;29;20237;-73
2024/03/22 09:21:54;;;;;;;8.83;4.23;;;12.60;99.90;;;;;;4893615;29;20241;-73
2024/03/22 09:24:21;;;;;;;7.37;3.50;;;12.50;99.90;;;;;;4896646;29;20616;-73
2024/03/22 09:26:49;;;;;;;8.03;4.10;;;12.60;99.90;;;;;;4893443;29;20329;-75
2024/03/22 09:29:15;;;;;;;8.80;4.27;;;12.70;99.90;;;;;;4896103;29;20308;-74
2024/03/22 09:31:41;;;;;;;9.33;3.83;;;12.80;99.90;;;;;;4897238;29;20286;-76
2024/03/22 09:34:08;;;;;;;8.03;4.23;;;12.90;99.90;;;;;;4896769;29;20210;-78
2024/03/22 09:36:35;;;;;;;7.10;3.90;;;12.90;99.90;;;;;;4897098;29;20680;-82
2024/03/22 09:39:02;;;;;;;7.73;3.73;;;13.10;99.90;;;;;;4897730;29;20587;-81
2024/03/22 09:41:32;;;;;;;10.87;3.90;;;13.20;99.90;;;;;;4897125;29;20234;-79
2024/03/22 09:44:01;;;;;;;7.83;3.83;;;13.30;99.90;;;;;;4897763;29;20292;-79
2024/03/22 09:46:27;;;;;;;8.30;4.03;;;13.50;99.90;;;;;;4898677;29;20309;-80
2024/03/22 09:48:55;;;;;;;7.30;3.53;;;13.50;99.90;;;;;;4898060;29;20234;-81
2024/03/22 09:51:21;;;;;;;7.93;3.67;;;13.40;99.90;;;;;;4897374;29;20622;-82
2024/03/22 09:53:50;;;;;;;7.33;3.80;;;13.30;99.90;;;;;;4897306;29;20210;-80
2024/03/22 09:56:17;;;;;;;10.50;4.47;;;13.30;99.90;;;;;;4897520;29;20210;-80
2024/03/22 09:58:45;;;;;;;8.33;3.63;;;13.20;99.90;;;;;;4896827;29;20245;-79
2024/03/22 10:01:15;;;;;;;8.77;4.60;;;13.30;99.90;;;;;;4898202;29;20587;-83
2024/03/22 10:03:42;;;;;;;7.60;3.83;;;13.40;99.90;;;;;;4896912;29;20210;-76
2024/03/22 10:06:08;;;;;;;8.83;4.47;;;13.40;99.90;;;;;;4897260;29;20238;-82
2024/03/22 10:08:36;;;;;;;9.33;4.20;;;13.40;99.90;;;;;;4902783;29;20623;-79
2024/03/22 10:11:03;;;;;;;11.53;3.93;;;13.60;99.90;;;;;;4902363;29;20679;-77
2024/03/22 10:13:30;;;;;;;7.40;3.97;;;13.80;99.90;;;;;;4897571;29;20221;-80
2024/03/22 10:15:57;;;;;;;9.83;4.07;;;13.60;99.90;;;;;;4897644;29;20377;-84
2024/03/22 10:18:25;;;;;;;10.77;4.50;;;13.60;99.90;;;;;;4896309;29;20286;-80
2024/03/22 10:21:00;;;;;;;9.70;4.40;;;13.40;99.90;;;;;;4897473;29;20214;-79
2024/03/22 10:23:27;;;;;;;6.97;3.70;;;13.30;99.90;;;;;;4897182;29;20729;-82
2024/03/22 10:25:53;;;;;;;8.83;4.03;;;13.30;99.90;;;;;;4897050;29;20253;-78
2024/03/22 10:28:20;;;;;;;7.47;3.90;;;13.30;99.90;;;;;;4897633;29;20230;-80
2024/03/22 10:30:48;;;;;;;7.03;3.33;;;13.30;99.90;;;;;;4896759;29;20218;-79
2024/03/22 10:33:16;;;;;;;11.03;4.20;;;13.20;99.90;;;;;;4896032;29;20228;-78
2024/03/22 10:35:45;;;;;;;10.03;3.90;;;13.30;99.90;;;;;;4896574;29;20234;-77
2024/03/22 10:38:14;;;;;;;7.87;4.03;;;13.50;99.90;;;;;;4895375;29;20311;-76
2024/03/22 10:40:44;;;;;;;7.53;3.67;;;13.50;99.90;;;;;;4888987;29;20235;-77
2024/03/22 10:43:10;;;;;;;8.00;4.30;;;13.70;99.90;;;;;;4894946;29;20936;-75
2024/03/22 10:45:38;;;;;;;7.93;3.90;;;13.70;99.90;;;;;;4895074;29;20271;-77
2024/03/22 10:48:09;;;;;;;9.73;3.50;;;13.70;99.90;;;;;;4895966;29;20230;-81
2024/03/22 10:50:38;;;;;;;7.30;4.03;;;13.90;99.90;;;;;;4894041;29;20237;-78
2024/03/22 10:53:11;;;;;;;6.90;4.00;;;14.00;99.90;;;;;;4896090;29;20221;-79
2024/03/22 10:55:41;;;;;;;6.97;3.80;;;13.90;99.90;;;;;;4896150;29;20253;-77
2024/03/22 10:58:15;;;;;;;7.13;3.93;;;14.00;99.90;;;;;;4896233;29;20226;-79
2024/03/22 11:00:43;;;;;;;7.83;3.50;;;14.00;99.90;;;;;;4896341;29;20214;-79
2024/03/22 11:03:10;;;;;;;9.97;4.10;;;14.10;99.90;;;;;;4896423;29;20770;-78
2024/03/22 11:05:45;;;;;;;6.07;3.70;;;14.30;99.90;;;;;;4895360;29;20250;-79
2024/03/22 11:08:14;;;;;;;6.73;3.80;;;14.10;99.90;;;;;;4897481;29;20297;-78
2024/03/22 11:10:40;;;;;;;5.90;3.50;;;14.10;99.90;;;;;;4911144;29;20217;-79
2024/03/22 11:13:08;;;;;;;8.93;3.87;;;14.00;99.90;;;;;;4919003;29;20206;-78
2024/03/22 11:15:34;;;;;;;6.47;3.70;;;14.10;99.90;;;;;;4917905;29;20206;-79
2024/03/22 11:18:03;;;;;;;6.70;3.37;;;14.00;99.90;;;;;;4903857;29;20258;-81
2024/03/22 11:20:29;;;;;;;8.97;3.90;;;14.00;99.90;;;;;;4897050;29;20730;-80
2024/03/22 11:22:57;;;;;;;8.80;3.97;;;14.00;99.90;;;;;;4896372;29;20681;-77
2024/03/22 11:25:24;;;;;;;10.43;3.97;;;14.10;99.90;;;;;;4896024;29;20702;-78
2024/03/22 11:27:52;;;;;;;8.17;4.27;;;14.40;99.90;;;;;;4896587;29;20759;-77
2024/03/22 11:30:18;;;;;;;10.73;4.07;;;14.40;99.90;;;;;;4894203;29;20281;-76
2024/03/22 11:32:45;;;;;;;8.23;4.23;;;14.50;99.90;;;;;;4896004;29;20218;-80
2024/03/22 11:35:12;;;;;;;7.03;3.63;;;14.50;99.90;;;;;;4897594;29;20672;-79
2024/03/22 11:37:40;;;;;;;6.00;3.77;;;14.60;99.90;;;;;;4894094;29;20655;-77
2024/03/22 11:40:10;;;;;;;5.70;3.10;;;14.60;99.90;;;;;;4894715;29;20237;-77
2024/03/22 11:42:40;;;;;;;7.90;4.37;;;14.40;99.90;;;;;;4894283;29;20246;-78
2024/03/22 11:45:09;;;;;;;7.43;3.87;;;14.40;99.90;;;;;;4894902;29;20294;-77
2024/03/22 11:47:36;;;;;;;8.30;4.00;;;14.30;99.90;;;;;;4895161;29;20304;-75
2024/03/22 11:50:02;;;;;;;8.63;4.07;;;14.00;99.90;;;;;;4895528;29;20206;-75
2024/03/22 11:52:30;;;;;;;7.43;3.53;;;14.00;99.90;;;;;;4895606;29;20664;-75
2024/03/22 11:54:56;;;;;;;9.03;4.50;;;14.10;99.90;;;;;;4895583;29;20245;-76
2024/03/22 11:57:24;;;;;;;7.07;3.80;;;14.10;99.90;;;;;;4895569;29;20234;-76
2024/03/22 11:59:52;;;;;;;7.80;3.87;;;14.10;99.90;;;;;;4898483;29;20244;-75
2024/03/22 12:02:19;;;;;;;7.07;3.63;;;13.90;99.90;;;;;;4899516;29;20214;-76
2024/03/22 12:04:46;;;;;;;7.90;3.47;;;13.90;99.90;;;;;;4898278;29;20211;-74
2024/03/22 12:07:15;;;;;;;8.83;3.73;;;13.90;99.90;;;;;;4898859;29;20222;-75
2024/03/22 12:09:42;;;;;;;6.63;3.63;;;13.80;99.90;;;;;;4899809;29;20203;-74
2024/03/22 12:12:11;;;;;;;8.37;3.60;;;13.90;99.90;;;;;;4899851;29;20233;-74
2024/03/22 12:14:36;;;;;;;7.10;4.13;;;13.80;99.90;;;;;;4899379;29;20238;-74
2024/03/22 12:17:05;;;;;;;7.10;3.73;;;13.80;99.90;;;;;;4899672;29;20273;-74
2024/03/22 12:19:31;;;;;;;6.10;3.70;;;13.70;99.90;;;;;;4894980;29;20274;-75
2024/03/22 12:21:59;;;;;;;9.97;3.93;;;13.80;99.90;;;;;;4899641;29;20217;-75
2024/03/22 12:24:25;;;;;;;5.80;3.63;;;13.90;99.90;;;;;;4899684;29;20230;-75
2024/03/22 12:26:53;;;;;;;8.87;4.27;;;13.80;99.90;;;;;;4899345;29;20207;-75
2024/03/22 12:29:19;;;;;;;9.07;3.63;;;13.80;99.90;;;;;;4887637;29;20207;-75
2024/03/22 12:31:46;;;;;;;7.63;3.73;;;13.90;99.90;;;;;;4881238;29;20263;-76
2024/03/22 12:34:13;;;;;;;8.83;4.20;;;13.90;99.90;;;;;;4898623;29;20242;-76
2024/03/22 12:36:40;;;;;;;6.93;3.57;;;14.00;99.90;;;;;;4899388;29;20206;-75
2024/03/22 12:39:06;;;;;;;5.90;3.40;;;13.80;99.90;;;;;;4898916;29;20269;-76
2024/03/22 12:41:34;;;;;;;6.30;3.93;;;13.80;99.90;;;;;;4899305;29;20242;-75
2024/03/22 12:44:00;;;;;;;6.13;3.83;;;13.80;99.90;;;;;;4899693;29;20352;-75
2024/03/22 12:46:28;;;;;;;10.93;3.67;;;13.70;99.90;;;;;;4899735;29;20211;-75
2024/03/22 12:48:54;;;;;;;10.33;4.20;;;13.70;99.90;;;;;;4899071;29;20233;-75
2024/03/22 12:51:23;;;;;;;7.17;3.90;;;13.70;99.90;;;;;;4899116;29;20602;-76
2024/03/22 12:53:49;;;;;;;6.40;3.83;;;13.60;99.90;;;;;;4899127;29;20209;-75
2024/03/22 12:56:16;;;;;;;7.53;3.80;;;13.40;99.90;;;;;;4899516;29;20206;-75
2024/03/22 12:58:42;;;;;;;6.93;3.97;;;13.30;99.90;;;;;;4898939;29;20268;-75
2024/03/22 13:01:10;;;;;;;7.63;3.70;;;13.30;99.90;;;;;;4898885;29;20246;-75
2024/03/22 13:03:37;;;;;;;8.00;3.63;;;13.30;99.90;;;;;;4899050;29;20211;-75
2024/03/22 13:06:05;;;;;;;7.07;3.53;;;13.30;99.90;;;;;;4898806;29;20583;-75
2024/03/22 13:08:32;;;;;;;6.67;3.40;;;13.40;99.90;;;;;;4898312;29;20290;-76
2024/03/22 13:10:59;;;;;;;6.00;3.30;;;13.40;99.90;;;;;;4899082;29;20210;-76
2024/03/22 13:13:25;;;;;;;6.50;3.70;;;13.40;99.90;;;;;;4898480;29;20702;-76
2024/03/22 13:15:52;;;;;;;6.33;3.20;;;13.40;99.90;;;;;;4885738;29;20246;-76
2024/03/22 13:18:18;;;;;;;6.90;3.37;;;13.40;99.90;;;;;;4883958;29;20265;-76
2024/03/22 13:20:47;;;;;;;7.23;3.33;;;13.50;99.90;;;;;;4898602;29;20791;-76
2024/03/22 13:23:14;;;;;;;5.93;3.17;;;13.70;99.90;;;;;;4898984;29;20248;-75
2024/03/22 13:25:41;;;;;;;5.77;3.30;;;13.70;99.90;;;;;;4898611;29;20237;-76
2024/03/22 13:28:09;;;;;;;6.73;3.30;;;13.80;99.90;;;;;;4898451;29;20225;-75
2024/03/22 13:30:35;;;;;;;6.57;3.47;;;13.80;99.90;;;;;;4898570;29;20258;-76
2024/03/22 13:33:02;;;;;;;5.17;3.10;;;13.80;99.90;;;;;;4898133;29;20214;-76
2024/03/22 13:35:28;;;;;;;8.47;4.10;;;13.90;99.90;;;;;;4897707;29;20623;-76
2024/03/22 13:37:55;;;;;;;8.87;3.53;;;13.90;99.90;;;;;;4897858;29;20699;-76
2024/03/22 13:40:21;;;;;;;7.43;3.60;;;13.80;99.90;;;;;;4898421;29;20281;-76
2024/03/22 13:42:49;;;;;;;6.47;3.80;;;13.60;99.90;;;;;;4897888;29;20644;-76
2024/03/22 13:45:15;;;;;;;6.63;3.57;;;13.60;99.90;;;;;;4897669;29;20242;-75
2024/03/22 13:47:42;;;;;;;5.90;3.00;;;13.60;99.90;;;;;;4898141;29;20651;-76
2024/03/22 13:50:08;;;;;;;6.17;3.23;;;13.70;99.90;;;;;;4898425;29;20906;-76
2024/03/22 13:52:35;;;;;;;7.80;3.40;;;13.70;99.90;;;;;;4898459;29;20224;-76
2024/03/22 13:55:01;;;;;;;11.20;3.30;;;13.80;99.90;;;;;;4898733;29;20218;-76
2024/03/22 13:57:28;;;;;;;8.20;3.17;;;13.70;99.90;;;;;;4898006;29;20234;-76
2024/03/22 13:59:58;;;;;;;6.53;3.20;;;13.50;99.90;;;;;;4897975;29;20274;-76
2024/03/22 14:02:25;;;;;;;7.10;2.83;;;13.50;99.90;;;;;;4898073;29;20228;-75
2024/03/22 14:04:52;;;;;;;6.33;3.27;;;13.50;99.90;;;;;;4898332;29;20241;-76
2024/03/22 14:07:19;;;;;;;10.73;3.53;;;13.50;99.90;;;;;;4897809;29;20759;-76
2024/03/22 14:09:45;;;;;;;5.90;2.77;;;13.40;99.90;;;;;;4898175;29;20234;-75
2024/03/22 14:12:12;;;;;;;5.70;3.13;;;13.60;99.90;;;;;;4898145;29;20262;-76
2024/03/22 14:14:38;;;;;;;5.00;2.93;;;13.60;99.90;;;;;;4897072;29;20236;-76
2024/03/22 14:17:06;;;;;;;7.50;3.93;;;13.70;99.90;;;;;;4897973;29;20230;-76
2024/03/22 14:19:32;;;;;;;5.83;3.37;;;13.80;99.90;;;;;;4897987;29;20648;-76
2024/03/22 14:21:59;;;;;;;6.63;4.03;;;13.70;99.90;;;;;;4896891;29;20234;-76
2024/03/22 14:24:26;;;;;;;6.87;3.47;;;13.50;99.90;;;;;;4897601;29;20667;-76
2024/03/22 14:26:52;;;;;;;6.50;3.03;;;13.40;99.90;;;;;;4897665;29;20230;-76
2024/03/22 14:29:19;;;;;;;7.63;3.27;;;13.40;99.90;;;;;;4897427;29;20670;-76
2024/03/22 14:31:45;;;;;;;8.57;3.20;;;13.60;99.90;;;;;;4897254;29;20210;-76
2024/03/22 14:34:14;;;;;;;5.47;3.07;;;13.50;99.90;;;;;;4897520;29;20262;-76
2024/03/22 14:36:40;;;;;;;6.67;3.23;;;13.70;99.90;;;;;;4896711;29;20617;-76
2024/03/22 14:39:07;;;;;;;5.60;3.53;;;13.60;99.90;;;;;;4897540;29;20206;-76
2024/03/22 14:41:33;;;;;;;7.50;3.40;;;13.30;99.90;;;;;;4897844;29;20241;-76
2024/03/22 14:44:01;;;;;;;3.70;2.53;;;13.30;99.90;;;;;;4897274;29;20796;-76
2024/03/22 14:46:28;;;;;;;7.17;2.97;;;13.20;99.90;;;;;;4897093;29;20624;-76
2024/03/22 14:48:56;;;;;;;4.83;2.87;;;13.20;99.90;;;;;;4897637;29;20230;-77
2024/03/22 14:51:24;;;;;;;4.70;3.43;;;13.30;99.90;;;;;;4897758;29;20268;-76
2024/03/22 14:53:51;;;;;;;4.97;3.27;;;13.30;99.90;;;;;;4897118;29;20205;-76
2024/03/22 14:56:18;;;;;;;4.83;2.60;;;13.40;99.90;;;;;;4897078;29;20236;-76
2024/03/22 14:58:45;;;;;;;5.37;2.43;;;13.50;99.90;;;;;;4897216;29;20325;-76
2024/03/22 15:01:11;;;;;;;3.93;2.63;;;13.50;99.90;;;;;;4897332;29;20714;-77
2024/03/22 15:03:37;;;;;;;4.80;2.50;;;13.50;99.90;;;;;;4897555;29;20333;-77
2024/03/22 15:06:04;;;;;;;5.40;2.47;;;13.50;99.90;;;;;;4897407;29;20694;-77
2024/03/22 15:08:33;;;;;;;5.40;2.50;;;13.30;99.90;;;;;;4897563;29;20269;-76
2024/03/22 15:10:59;;;;;;;8.17;2.80;;;13.20;99.90;;;;;;4897364;29;20216;-77
2024/03/22 15:13:25;;;;;;;4.83;2.80;;;13.30;99.90;;;;;;4897231;29;20643;-77
2024/03/22 15:15:55;;;;;;;4.67;2.87;;;13.30;99.90;;;;;;4897479;29;20242;-76
2024/03/22 15:18:23;;;;;;;7.03;2.60;;;13.10;99.90;;;;;;4897173;29;20693;-76
2024/03/22 15:20:49;;;;;;;4.27;2.70;;;13.10;99.90;;;;;;4897446;29;20274;-76
2024/03/22 15:23:16;;;;;;;5.30;2.80;;;13.00;99.90;;;;;;4897395;29;20221;-76
2024/03/22 15:25:44;;;;;;;4.07;2.83;;;12.90;99.90;;;;;;4897136;29;20238;-76
2024/03/22 15:28:11;;;;;;;7.60;2.70;;;12.70;99.90;;;;;;4896872;29;20267;-76
2024/03/22 15:30:38;;;;;;;4.50;2.57;;;12.60;99.90;;;;;;4896824;29;20214;-76
2024/03/22 15:33:05;;;;;;;7.13;2.57;;;12.60;99.90;;;;;;4899215;29;20221;-76
2024/03/22 15:35:31;;;;;;;4.33;2.83;;;12.50;99.90;;;;;;4900775;29;20297;-77
2024/03/22 15:37:59;;;;;;;6.27;3.30;;;12.40;99.90;;;;;;4900552;29;20326;-76
2024/03/22 15:40:25;;;;;;;4.27;2.80;;;12.40;99.90;;;;;;4899870;29;20262;-76
2024/03/22 15:42:53;;;;;;;5.70;2.63;;;12.50;99.90;;;;;;4899963;29;20207;-77
2024/03/22 15:45:19;;;;;;;6.87;3.23;;;12.40;99.90;;;;;;4899843;29;20209;-76
2024/03/22 15:47:47;;;;;;;4.73;3.07;;;12.30;99.90;;;;;;4898373;29;20234;-76
2024/03/22 15:50:14;;;;;;;5.23;2.90;;;12.30;99.90;;;;;;4900043;29;20250;-76
2024/03/22 15:52:40;;;;;;;6.77;2.73;;;12.30;99.90;;;;;;4900148;29;20308;-76
2024/03/22 15:55:07;;;;;;;5.10;3.03;;;12.30;99.90;;;;;;4899855;29;20242;-76
2024/03/22 15:57:34;;;;;;;5.87;3.07;;;12.20;99.90;;;;;;4899809;29;20234;-77
2024/03/22 16:00:01;;;;;;;4.13;2.60;;;12.10;99.90;;;;;;4900414;29;20273;-77
2024/03/22 16:02:29;;;;;;;5.03;2.87;;;12.10;99.90;;;;;;4900846;29;20583;-77
2024/03/22 16:04:56;;;;;;;6.47;3.10;;;12.10;99.90;;;;;;4900408;29;20250;-76
2024/03/22 16:07:23;;;;;;;6.80;3.00;;;12.00;99.90;;;;;;4900145;29;20234;-76
2024/03/22 16:09:51;;;;;;;4.03;2.70;;;12.10;99.90;;;;;;4915685;29;20215;-76
2024/03/22 16:12:18;;;;;;;5.30;2.93;;;12.00;99.90;;;;;;4917148;29;20250;-77
2024/03/22 16:14:44;;;;;;;6.40;2.90;;;12.00;99.90;;;;;;4916141;29;20230;-76
2024/03/22 16:17:12;;;;;;;5.73;2.60;;;12.00;99.90;;;;;;4916355;29;20234;-76
2024/03/22 16:19:38;;;;;;;3.97;2.73;;;12.00;99.90;;;;;;4903767;29;20214;-77
2024/03/22 16:22:05;;;;;;;5.37;3.17;;;11.90;99.90;;;;;;4901673;29;20552;-78
2024/03/22 16:24:31;;;;;;;4.03;2.37;;;12.00;99.90;;;;;;4901336;29;20298;-77
2024/03/22 16:26:58;;;;;;;6.87;3.10;;;12.00;99.90;;;;;;4900324;29;20230;-77
2024/03/22 16:29:24;;;;;;;4.23;3.30;;;11.90;99.90;;;;;;4900318;29;20627;-77
2024/03/22 16:31:51;;;;;;;4.47;3.00;;;11.90;99.90;;;;;;4900096;29;20253;-77
2024/03/22 16:34:19;;;;;;;3.63;2.50;;;11.90;99.90;;;;;;4900163;29;20217;-77
2024/03/22 16:36:46;;;;;;;2.90;2.13;;;11.80;99.90;;;;;;4899955;29;20210;-77
2024/03/22 16:39:11;;;;;;;3.10;2.10;;;11.70;99.90;;;;;;4900072;29;20246;-76
2024/03/22 16:41:38;;;;;;;3.47;1.73;;;11.70;99.90;;;;;;4899217;29;20284;-76
2024/03/22 16:44:04;;;;;;;3.30;2.10;;;11.60;99.90;;;;;;4898590;29;20254;-76
2024/03/22 16:46:31;;;;;;;3.00;2.10;;;11.50;99.90;;;;;;4898993;29;20206;-76
2024/03/22 16:48:58;;;;;;;3.90;1.90;;;11.50;99.90;;;;;;4899509;29;20230;-76
2024/03/22 16:51:26;;;;;;;4.70;2.23;;;11.50;99.90;;;;;;4899219;29;20226;-76
2024/03/22 16:53:52;;;;;;;3.17;2.10;;;11.50;99.90;;;;;;4899334;29;20238;-75
2024/03/22 16:56:19;;;;;;;2.97;1.80;;;11.50;99.90;;;;;;4899320;29;20684;-76
2024/03/22 16:58:45;;;;;;;2.30;1.60;;;11.50;99.90;;;;;;4899359;29;20715;-76
2024/03/22 17:01:12;;;;;;;2.60;1.60;;;11.50;99.90;;;;;;4899476;29;20276;-74
2024/03/22 17:03:38;;;;;;;4.27;2.10;;;11.50;99.90;;;;;;4899063;29;20257;-78
2024/03/22 17:06:05;;;;;;;4.37;2.17;;;11.60;99.90;;;;;;4899749;29;20250;-75
2024/03/22 17:08:33;;;;;;;3.20;2.00;;;11.70;99.90;;;;;;4899445;29;20238;-75
2024/03/22 17:11:00;;;;;;;4.20;1.87;;;11.70;99.90;;;;;;4899378;29;20221;-76
2024/03/22 17:13:27;;;;;;;3.57;2.00;;;11.70;99.90;;;;;;4899391;29;20211;-75
2024/03/22 17:15:55;;;;;;;3.30;2.20;;;11.50;99.90;;;;;;4899581;29;20210;-77
2024/03/22 17:18:21;;;;;;;2.90;1.67;;;11.60;99.90;;;;;;4899561;29;20265;-77
2024/03/22 17:20:48;;;;;;;15.40;8.27;;;11.50;99.90;;;;;;4900722;29;20324;-76
2024/03/22 17:23:14;;;;;;;3.50;2.30;;;11.50;99.90;;;;;;4899894;29;20242;-75
2024/03/22 17:25:42;;;;;;;5.80;3.00;;;11.40;99.90;;;;;;4901127;29;20298;-75
2024/03/22 17:28:08;;;;;;;10.47;5.77;;;11.40;99.90;;;;;;4901672;29;20290;-76
2024/03/22 17:30:36;;;;;;;9.17;5.37;;;11.30;99.90;;;;;;4901338;29;20234;-75
2024/03/22 17:33:02;;;;;;;5.70;3.80;;;11.30;99.90;;;;;;4899704;29;20250;-75
2024/03/22 17:35:29;;;;;;;5.53;3.53;;;11.30;99.90;;;;;;4899363;29;20214;-77
2024/03/22 17:37:55;;;;;;;5.57;3.33;;;11.20;99.90;;;;;;4898899;29;20744;-75
2024/03/22 17:40:22;;;;;;;4.03;2.50;;;11.20;99.90;;;;;;4898811;29;20242;-75
2024/03/22 17:42:49;;;;;;;4.07;2.27;;;11.10;99.90;;;;;;4899021;29;20238;-78
2024/03/22 17:45:17;;;;;;;2.67;1.83;;;11.10;99.90;;;;;;4898814;29;20301;-78
2024/03/22 17:47:42;;;;;;;4.13;1.73;;;11.20;99.90;;;;;;4898972;29;20266;-77
2024/03/22 17:50:10;;;;;;;6.27;2.20;;;11.10;99.90;;;;;;4898738;29;20246;-77
2024/03/22 17:52:36;;;;;;;3.00;1.70;;;11.10;99.90;;;;;;4898694;29;20301;-77
2024/03/22 17:55:03;;;;;;;2.50;1.60;;;11.10;99.90;;;;;;4898407;29;20620;-76
2024/03/22 17:57:30;;;;;;;2.67;1.80;;;11.10;99.90;;;;;;4898409;29;20711;-76
2024/03/22 17:59:59;;;;;;;3.73;2.03;;;11.10;99.90;;;;;;4898372;29;20702;-77
2024/03/22 18:02:25;;;;;;;3.53;2.63;;;11.20;99.90;;;;;;4898536;29;20672;-76
2024/03/22 18:04:52;;;;;;;3.57;1.83;;;11.10;99.90;;;;;;4899605;29;20210;-76
2024/03/22 18:07:18;;;;;;;2.47;1.87;;;11.10;99.90;;;;;;4898278;29;20707;-76
2024/03/22 18:09:46;;;;;;;3.10;2.00;;;11.10;99.90;;;;;;4894253;29;20235;-77
2024/03/22 18:12:13;;;;;;;3.13;2.30;;;11.20;99.90;;;;;;4897233;29;20297;-77
2024/03/22 18:14:40;;;;;;;2.83;2.07;;;11.20;99.90;;;;;;4897583;29;20202;-75
2024/03/22 18:17:08;;;;;;;3.80;2.60;;;11.20;99.90;;;;;;4896966;29;20313;-73
2024/03/22 18:19:34;;;;;;;2.97;1.80;;;11.20;99.90;;;;;;4897263;29;20213;-78
2024/03/22 18:22:03;;;;;;;2.50;1.57;;;11.10;99.90;;;;;;4897538;29;20269;-71
2024/03/22 18:24:30;;;;;;;3.83;1.63;;;11.20;99.90;;;;;;4897947;29;20230;-78
2024/03/22 18:26:56;;;;;;;2.33;1.40;;;11.20;99.90;;;;;;4895423;29;20267;-76
2024/03/22 18:29:23;;;;;;;2.13;1.40;;;11.30;99.90;;;;;;4893321;29;20246;-71
2024/03/22 18:31:49;;;;;;;2.40;1.47;;;11.20;99.90;;;;;;4896219;29;20727;-71
2024/03/22 18:34:17;;;;;;;2.83;1.50;;;11.20;99.90;;;;;;4896675;29;20250;-73
2024/03/22 18:36:43;;;;;;;2.30;1.50;;;11.20;99.90;;;;;;4896418;29;20211;-72
2024/03/22 18:39:10;;;;;;;2.70;1.70;;;11.10;99.90;;;;;;4896421;29;20656;-77
2024/03/22 18:41:36;;;;;;;3.97;1.77;;;11.20;99.90;;;;;;4896621;29;20321;-72
2024/03/22 18:44:03;;;;;;;3.37;1.70;;;11.30;99.90;;;;;;4896979;29;20302;-71
2024/03/22 18:46:29;;;;;;;2.73;1.50;;;11.50;99.90;;;;;;4897063;29;20213;-72
2024/03/22 18:48:56;;;;;;;3.27;1.80;;;11.60;99.90;;;;;;4896828;29;20641;-71
2024/03/22 18:51:23;;;;;;;3.60;2.30;;;10.90;99.90;;;;;;4896778;29;20222;-76
2024/03/22 18:53:53;;;;;;;5.13;2.40;;;10.60;99.90;;;;;;4896937;29;20728;-71
2024/03/22 18:56:18;;;;;;;7.40;2.70;;;10.70;99.90;;;;;;4896989;29;20252;-72
2024/03/22 18:58:45;;;;;;;7.47;3.37;;;10.70;99.90;;;;;;4892857;29;20266;-72
2024/03/22 19:01:11;;;;;;;5.83;2.70;;;10.50;99.90;;;;;;4896962;29;20269;-71
2024/03/22 19:03:38;;;;;;;6.07;2.83;;;10.70;99.90;;;;;;4898645;29;20398;-71
2024/03/22 19:06:04;;;;;;;4.80;2.83;;;10.80;99.90;;;;;;4898928;29;20700;-71
2024/03/22 19:08:33;;;;;;;6.30;3.03;;;10.80;99.90;;;;;;4901446;29;20234;-71
2024/03/22 19:10:58;;;;;;;8.47;2.60;;;10.90;99.90;;;;;;4900683;29;20242;-71
2024/03/22 19:13:25;;;;;;;5.67;2.77;;;11.00;99.90;;;;;;4900464;29;20242;-71
2024/03/22 19:15:54;;;;;;;7.60;3.07;;;11.00;99.90;;;;;;4900808;29;20210;-71
2024/03/22 19:18:21;;;;;;;6.23;3.20;;;11.00;99.90;;;;;;4900604;29;20230;-71
2024/03/22 19:20:48;;;;;;;5.70;3.27;;;10.80;99.90;;;;;;4900377;29;20290;-72
2024/03/22 19:23:15;;;;;;;8.47;3.47;;;10.50;99.90;;;;;;4900887;29;20214;-74
2024/03/22 19:25:42;;;;;;;6.53;3.10;;;10.40;99.90;;;;;;4900684;29;20234;-74
2024/03/22 19:28:10;;;;;;;8.13;2.90;;;10.10;99.90;;;;;;4898833;29;20776;-75
2024/03/22 19:30:36;;;;;;;10.67;3.23;;;10.20;99.90;;;;;;4886998;29;20206;-71
2024/03/22 19:33:03;;;;;;;9.20;2.73;;;10.40;99.90;;;;;;4900582;29;20575;-71
2024/03/22 19:35:29;;;;;;;7.70;3.50;;;10.40;99.90;;;;;;4899730;29;20243;-73
2024/03/22 19:37:56;;;;;;;8.70;3.07;;;10.30;99.90;;;;;;4899901;29;20731;-71
2024/03/22 19:40:21;;;;;;;10.53;4.77;;;10.40;99.90;;;;;;4900208;29;20658;-71
2024/03/22 19:42:51;;;;;;;7.60;3.20;;;10.50;99.90;;;;;;4900516;29;20294;-71
2024/03/22 19:45:17;;;;;;;8.13;2.83;;;10.60;99.90;;;;;;4900289;29;20206;-72
2024/03/22 19:47:44;;;;;;;7.80;2.90;;;10.60;99.90;;;;;;4900431;29;20234;-72
2024/03/22 19:50:10;;;;;;;4.73;2.40;;;10.50;99.90;;;;;;4900352;29;20636;-75
2024/03/22 19:52:37;;;;;;;3.67;1.77;;;10.30;99.90;;;;;;4899942;29;20348;-76
2024/03/22 19:55:04;;;;;;;5.80;2.67;;;10.30;99.90;;;;;;4899930;29;20206;-73
2024/03/22 19:57:31;;;;;;;4.37;2.10;;;10.40;99.90;;;;;;4900179;29;20226;-74
2024/03/22 19:59:58;;;;;;;5.23;1.80;;;10.40;99.90;;;;;;4893369;29;20293;-72
2024/03/22 20:02:25;;;;;;;5.47;2.23;;;10.50;99.90;;;;;;4892622;29;20242;-73
2024/03/22 20:04:51;;;;;;;5.63;1.70;;;10.50;99.90;;;;;;4900157;29;20574;-78
2024/03/22 20:07:18;;;;;;;4.00;1.80;;;10.40;99.90;;;;;;4899776;29;20322;-71
2024/03/22 20:09:45;;;;;;;4.80;1.80;;;10.40;99.90;;;;;;4893698;29;20210;-72
2024/03/22 20:12:12;;;;;;;4.27;1.70;;;10.40;99.90;;;;;;4893722;29;20249;-75
2024/03/22 20:14:37;;;;;;;4.53;1.90;;;10.20;99.90;;;;;;4900154;29;20632;-73
2024/03/22 20:17:06;;;;;;;6.60;2.57;;;10.20;99.90;;;;;;4899876;29;20294;-75
2024/03/22 20:19:32;;;;;;;5.13;2.20;;;10.20;99.90;;;;;;4897901;29;20675;-74
2024/03/22 20:21:59;;;;;;;5.27;2.27;;;10.10;99.90;;;;;;4888594;29;20280;-72
2024/03/22 20:24:25;;;;;;;7.50;2.50;;;10.10;99.90;;;;;;4899819;29;20229;-80
2024/03/22 20:26:52;;;;;;;9.17;2.33;;;10.10;99.90;;;;;;4899532;29;20695;-78
2024/03/22 20:29:18;;;;;;;6.07;2.33;;;10.20;99.90;;;;;;4899675;29;20217;-76
2024/03/22 20:31:45;;;;;;;7.60;2.47;;;10.30;99.90;;;;;;4899832;29;20215;-74
2024/03/22 20:34:12;;;;;;;8.43;3.03;;;10.30;99.90;;;;;;4899370;29;20213;-75
2024/03/22 20:36:40;;;;;;;9.03;3.37;;;10.30;99.90;;;;;;4899647;29;20215;-73
2024/03/22 20:39:07;;;;;;;8.53;3.03;;;10.40;99.90;;;;;;4887658;29;20245;-76
2024/03/22 20:41:35;;;;;;;9.60;3.30;;;10.50;99.90;;;;;;4899354;29;20664;-80
2024/03/22 20:44:01;;;;;;;6.97;3.60;;;10.40;99.90;;;;;;4899711;29;20261;-72
2024/03/22 20:46:30;;;;;;;8.03;3.40;;;10.60;99.90;;;;;;4899260;29;20624;-80
2024/03/22 20:48:57;;;;;;;13.53;3.13;;;10.60;99.90;;;;;;4899180;29;20226;-78
2024/03/22 20:51:28;;;;;;;9.97;3.90;;;10.60;99.90;;;;;;4926594;23;20237;-81
2024/03/22 20:53:59;;;;;;;14.50;5.83;;;10.40;99.90;;;;;;4918423;29;20293;-76
2024/03/22 20:56:30;;;;;;;10.97;4.63;;;10.30;99.90;;;;;;4917434;29;20205;-78
2024/03/22 20:58:59;;;;;;;14.43;4.57;;;10.40;99.90;;;;;;4918828;29;20221;-82
2024/03/22 21:01:30;;;;;;;8.80;3.67;;;10.50;99.90;;;;;;4925193;29;20229;-79
2024/03/22 21:03:59;;;;;;;8.53;4.03;;;10.50;99.90;;;;;;4925635;29;20239;-81
2024/03/22 21:06:30;;;;;;;11.10;4.47;;;10.50;99.90;;;;;;4925558;29;20225;-76
2024/03/22 21:08:59;;;;;;;13.30;4.43;;;10.60;99.90;;;;;;4925617;29;20229;-76
2024/03/22 21:11:30;;;;;;;10.87;3.70;;;10.70;99.90;;;;;;4928027;29;20209;-82
2024/03/22 21:13:59;;;;;;;9.33;4.00;;;10.40;99.90;;;;;;4927077;29;20265;-76
2024/03/22 21:16:30;;;;;;;13.40;4.33;;;10.30;99.90;;;;;;4918461;29;20221;-78
2024/03/22 21:19:00;;;;;;;12.63;4.60;;;10.30;99.90;;;;;;4917680;29;20268;-78
2024/03/22 21:21:30;;;;;;;9.57;4.03;;;10.20;99.90;;;;;;4917275;29;20233;-77
2024/03/22 21:24:00;;;;;;;18.17;4.40;;;10.30;99.90;;;;;;4917208;29;20245;-82
2024/03/22 21:26:30;;;;;;;13.13;3.70;;;10.20;99.90;;;;;;4917581;29;20688;-81
2024/03/22 21:29:00;;;;;;;16.83;4.50;;;10.10;99.90;;;;;;4916858;29;20256;-82
2024/03/22 21:31:30;;;;;;;12.30;3.40;;;10.30;99.90;;;;;;4917205;29;20240;-77
2024/03/22 21:34:00;;;;;;;7.60;3.13;;;10.40;99.90;;;;;;4917285;29;20260;-82
2024/03/22 21:36:30;;;;;;;7.47;2.80;;;10.50;99.90;;;;;;4917324;29;20237;-82